createdAt,value
2019-03-24T00:00:13.972Z,0.00
2019-03-24T00:01:14.184Z,0.00
2019-03-24T00:02:13.933Z,0.00
2019-03-24T00:03:13.921Z,0.00
2019-03-24T00:04:13.911Z,0.00
2019-03-24T00:05:13.897Z,0.00
2019-03-24T00:06:13.889Z,0.00
2019-03-24T00:07:13.945Z,0.00
2019-03-24T00:08:13.866Z,0.00
2019-03-24T00:09:13.854Z,0.00
2019-03-24T00:10:13.841Z,0.00
2019-03-24T00:11:13.846Z,0.00
2019-03-24T00:12:13.819Z,0.00
2019-03-24T00:13:13.893Z,0.00
2019-03-24T00:14:13.803Z,0.00
2019-03-24T00:15:13.785Z,0.00
2019-03-24T00:16:13.778Z,0.00
2019-03-24T00:17:13.767Z,0.00
2019-03-24T00:18:13.753Z,0.00
2019-03-24T00:19:13.809Z,0.00
2019-03-24T00:20:13.734Z,0.00
2019-03-24T00:21:13.720Z,0.00
2019-03-24T00:22:13.723Z,0.00
2019-03-24T00:23:13.702Z,0.00
2019-03-24T00:24:13.687Z,0.00
2019-03-24T00:25:13.742Z,0.00
2019-03-24T00:26:13.665Z,0.00
2019-03-24T00:27:13.653Z,0.00
2019-03-24T00:28:13.641Z,0.00
2019-03-24T00:29:13.631Z,0.00
2019-03-24T00:30:13.621Z,0.00
2019-03-24T00:31:13.676Z,0.00
2019-03-24T00:32:13.599Z,0.00
2019-03-24T00:33:13.588Z,0.00
2019-03-24T00:34:13.574Z,0.00
2019-03-24T00:35:13.564Z,0.00
2019-03-24T00:36:13.552Z,0.00
2019-03-24T00:37:13.616Z,0.00
2019-03-24T00:38:13.530Z,0.00
2019-03-24T00:39:13.521Z,0.00
2019-03-24T00:40:13.508Z,0.00
2019-03-24T00:41:13.501Z,0.00
2019-03-24T00:42:13.485Z,0.00
2019-03-24T00:43:13.542Z,0.00
2019-03-24T00:44:13.465Z,0.00
2019-03-24T00:45:13.465Z,0.00
2019-03-24T00:46:13.454Z,0.00
2019-03-24T00:47:13.430Z,0.00
2019-03-24T00:48:13.419Z,0.00
2019-03-24T00:49:13.461Z,0.00
2019-03-24T00:50:13.396Z,0.00
2019-03-24T00:51:13.385Z,0.00
2019-03-24T00:52:13.374Z,0.00
2019-03-24T00:53:13.421Z,0.00
2019-03-24T00:54:13.353Z,0.00
2019-03-24T00:55:13.413Z,0.00
2019-03-24T00:56:13.331Z,0.00
2019-03-24T00:57:13.319Z,0.00
2019-03-24T00:58:13.308Z,0.00
2019-03-24T00:59:13.296Z,0.00
2019-03-24T01:00:13.301Z,0.00
2019-03-24T01:01:13.352Z,0.00
2019-03-24T01:02:13.305Z,0.00
2019-03-24T01:03:13.251Z,0.00
2019-03-24T01:04:13.240Z,0.00
2019-03-24T01:05:13.233Z,0.00
2019-03-24T01:06:13.217Z,0.00
2019-03-24T01:07:13.273Z,0.00
2019-03-24T01:08:13.198Z,0.00
2019-03-24T01:09:13.187Z,0.00
2019-03-24T01:10:13.173Z,0.00
2019-03-24T01:11:13.162Z,0.00
2019-03-24T01:12:13.150Z,0.00
2019-03-24T01:13:13.205Z,0.00
2019-03-24T01:14:13.128Z,0.00
2019-03-24T01:15:13.119Z,0.00
2019-03-24T01:16:13.106Z,0.00
2019-03-24T01:17:13.097Z,0.00
2019-03-24T01:18:13.087Z,0.00
2019-03-24T01:19:13.296Z,0.00
2019-03-24T01:20:13.061Z,0.00
2019-03-24T01:21:13.060Z,0.00
2019-03-24T01:22:13.057Z,0.00
2019-03-24T01:23:13.032Z,0.00
2019-03-24T01:24:13.016Z,0.00
2019-03-24T01:25:13.059Z,0.00
2019-03-24T01:26:13.046Z,0.00
2019-03-24T01:27:12.986Z,0.00
2019-03-24T01:28:12.972Z,0.00
2019-03-24T01:29:12.961Z,0.00
2019-03-24T01:30:12.948Z,0.00
2019-03-24T01:31:13.006Z,0.00
2019-03-24T01:32:12.929Z,0.00
2019-03-24T01:33:12.915Z,0.00
2019-03-24T01:34:12.905Z,0.00
2019-03-24T01:35:12.895Z,0.00
2019-03-24T01:36:12.883Z,0.00
2019-03-24T01:37:12.939Z,0.00
2019-03-24T01:38:12.863Z,0.00
2019-03-24T01:39:12.848Z,0.00
2019-03-24T01:40:12.837Z,0.00
2019-03-24T01:41:12.828Z,0.00
2019-03-24T01:42:12.821Z,0.00
2019-03-24T01:43:13.045Z,0.00
2019-03-24T01:44:12.794Z,0.00
2019-03-24T01:45:12.780Z,0.00
2019-03-24T01:46:12.772Z,0.00
2019-03-24T01:47:12.765Z,0.00
2019-03-24T01:48:12.747Z,0.00
2019-03-24T01:49:12.952Z,0.00
2019-03-24T01:50:12.724Z,0.00
2019-03-24T01:51:12.715Z,0.00
2019-03-24T01:52:12.703Z,0.00
2019-03-24T01:53:12.693Z,0.00
2019-03-24T01:54:12.680Z,0.00
2019-03-24T01:55:12.728Z,0.00
2019-03-24T01:56:12.726Z,0.00
2019-03-24T01:57:12.651Z,0.00
2019-03-24T01:58:12.636Z,0.00
2019-03-24T01:59:12.624Z,0.00
2019-03-24T02:00:12.615Z,0.00
2019-03-24T02:01:12.608Z,0.00
2019-03-24T02:02:12.647Z,0.00
2019-03-24T02:03:12.581Z,0.00
2019-03-24T02:04:12.568Z,0.00
2019-03-24T02:05:12.557Z,0.00
2019-03-24T02:06:12.546Z,0.00
2019-03-24T02:07:12.779Z,0.00
2019-03-24T02:08:12.525Z,0.00
2019-03-24T02:09:12.524Z,0.00
2019-03-24T02:10:12.501Z,0.00
2019-03-24T02:11:12.491Z,0.00
2019-03-24T02:12:12.479Z,0.00
2019-03-24T02:13:12.536Z,0.00
2019-03-24T02:14:12.458Z,0.00
2019-03-24T02:15:12.447Z,0.00
2019-03-24T02:16:12.435Z,0.00
2019-03-24T02:17:12.424Z,0.00
2019-03-24T02:18:12.415Z,0.00
2019-03-24T02:19:12.454Z,0.00
2019-03-24T02:20:12.391Z,0.00
2019-03-24T02:21:12.383Z,0.00
2019-03-24T02:22:12.367Z,0.00
2019-03-24T02:23:12.357Z,0.00
2019-03-24T02:24:12.401Z,0.00
2019-03-24T02:25:12.334Z,0.00
2019-03-24T02:26:12.325Z,0.00
2019-03-24T02:27:12.315Z,0.00
2019-03-24T02:28:12.300Z,0.00
2019-03-24T02:29:12.507Z,0.00
2019-03-24T02:30:12.279Z,0.00
2019-03-24T02:31:12.269Z,0.00
2019-03-24T02:32:12.259Z,0.00
2019-03-24T02:33:12.245Z,0.00
2019-03-24T02:34:12.237Z,0.00
2019-03-24T02:35:12.290Z,0.00
2019-03-24T02:36:12.211Z,0.00
2019-03-24T02:37:12.203Z,0.00
2019-03-24T02:38:12.193Z,0.00
2019-03-24T02:39:12.179Z,0.00
2019-03-24T02:40:12.174Z,0.00
2019-03-24T02:41:12.225Z,0.00
2019-03-24T02:42:12.150Z,0.00
2019-03-24T02:43:12.136Z,0.00
2019-03-24T02:44:12.127Z,0.00
2019-03-24T02:45:12.112Z,0.00
2019-03-24T02:46:23.555Z,0.00
2019-03-24T02:47:13.140Z,0.00
2019-03-24T02:48:12.082Z,0.00
2019-03-24T02:49:12.073Z,0.00
2019-03-24T02:50:12.065Z,0.00
2019-03-24T02:51:12.047Z,0.00
2019-03-24T02:52:12.108Z,0.00
2019-03-24T02:53:12.025Z,0.00
2019-03-24T02:54:12.021Z,0.00
2019-03-24T02:55:12.002Z,0.00
2019-03-24T02:56:11.989Z,0.00
2019-03-24T02:57:11.989Z,0.00
2019-03-24T02:58:12.042Z,0.00
2019-03-24T02:59:11.961Z,0.00
2019-03-24T03:00:11.945Z,0.00
2019-03-24T03:01:11.949Z,0.00
2019-03-24T03:02:11.932Z,0.00
2019-03-24T03:03:11.912Z,0.00
2019-03-24T03:04:12.032Z,0.00
2019-03-24T03:05:12.133Z,0.00
2019-03-24T03:06:11.884Z,0.00
2019-03-24T03:07:11.866Z,0.00
2019-03-24T03:08:11.856Z,0.00
2019-03-24T03:09:11.845Z,0.00
2019-03-24T03:10:11.833Z,0.00
2019-03-24T03:11:11.893Z,0.00
2019-03-24T03:12:11.822Z,0.00
2019-03-24T03:13:11.808Z,0.00
2019-03-24T03:14:11.788Z,0.00
2019-03-24T03:15:11.779Z,0.00
2019-03-24T03:16:11.768Z,0.00
2019-03-24T03:17:11.972Z,0.00
2019-03-24T03:18:11.746Z,0.00
2019-03-24T03:19:11.734Z,0.00
2019-03-24T03:20:11.720Z,0.00
2019-03-24T03:21:11.717Z,0.00
2019-03-24T03:22:11.700Z,0.00
2019-03-24T03:23:11.763Z,0.00
2019-03-24T03:24:11.693Z,0.00
2019-03-24T03:25:11.664Z,0.00
2019-03-24T03:26:11.659Z,0.00
2019-03-24T03:27:11.643Z,0.00
2019-03-24T03:28:11.631Z,0.00
2019-03-24T03:29:11.673Z,0.00
2019-03-24T03:30:11.610Z,0.00
2019-03-24T03:31:11.599Z,0.00
2019-03-24T03:32:11.590Z,0.00
2019-03-24T03:33:11.797Z,0.00
2019-03-24T03:34:11.566Z,0.00
2019-03-24T03:35:11.610Z,0.00
2019-03-24T03:36:11.544Z,0.00
2019-03-24T03:37:11.554Z,0.00
2019-03-24T03:38:11.521Z,0.00
2019-03-24T03:39:11.614Z,0.00
2019-03-24T03:40:11.535Z,0.00
2019-03-24T03:41:11.498Z,0.00
2019-03-24T03:42:11.475Z,0.00
2019-03-24T03:43:11.502Z,0.00
2019-03-24T03:44:11.465Z,0.00
2019-03-24T03:45:11.528Z,0.00
2019-03-24T03:46:11.434Z,0.00
2019-03-24T03:47:11.418Z,0.00
2019-03-24T03:48:11.411Z,0.00
2019-03-24T03:49:11.407Z,0.00
2019-03-24T03:50:11.386Z,0.00
2019-03-24T03:51:11.430Z,0.00
2019-03-24T03:52:11.364Z,0.00
2019-03-24T03:53:11.350Z,0.00
2019-03-24T03:54:11.341Z,0.00
2019-03-24T03:55:11.329Z,0.00
2019-03-24T03:56:11.375Z,0.00
2019-03-24T03:57:11.307Z,0.00
2019-03-24T03:58:11.305Z,0.00
2019-03-24T03:59:11.284Z,0.00
2019-03-24T04:00:11.275Z,0.00
2019-03-24T04:01:11.481Z,0.00
2019-03-24T04:02:11.255Z,0.00
2019-03-24T04:03:11.255Z,0.00
2019-03-24T04:04:11.233Z,0.00
2019-03-24T04:05:11.219Z,0.00
2019-03-24T04:06:11.212Z,0.00
2019-03-24T04:07:11.264Z,0.00
2019-03-24T04:08:11.184Z,0.00
2019-03-24T04:09:11.173Z,0.00
2019-03-24T04:10:11.161Z,0.00
2019-03-24T04:11:11.151Z,0.00
2019-03-24T04:12:11.138Z,0.00
2019-03-24T04:13:11.215Z,0.00
2019-03-24T04:14:11.115Z,0.00
2019-03-24T04:15:11.109Z,0.00
2019-03-24T04:16:11.093Z,0.00
2019-03-24T04:17:11.081Z,0.00
2019-03-24T04:18:11.070Z,0.00
2019-03-24T04:19:11.111Z,0.00
2019-03-24T04:20:11.051Z,0.00
2019-03-24T04:21:11.120Z,0.00
2019-03-24T04:22:11.023Z,0.00
2019-03-24T04:23:11.018Z,0.00
2019-03-24T04:24:11.006Z,0.00
2019-03-24T04:25:10.993Z,0.00
2019-03-24T04:26:10.978Z,0.00
2019-03-24T04:27:11.044Z,0.00
2019-03-24T04:28:10.958Z,0.00
2019-03-24T04:29:10.947Z,0.00
2019-03-24T04:30:10.934Z,0.00
2019-03-24T04:31:10.924Z,0.00
2019-03-24T04:32:10.927Z,0.00
2019-03-24T04:33:11.142Z,0.00
2019-03-24T04:34:10.891Z,0.00
2019-03-24T04:35:10.879Z,0.00
2019-03-24T04:36:10.868Z,0.00
2019-03-24T04:37:10.856Z,0.00
2019-03-24T04:38:10.846Z,0.00
2019-03-24T04:39:10.888Z,0.00
2019-03-24T04:40:10.822Z,0.00
2019-03-24T04:41:10.809Z,0.00
2019-03-24T04:42:10.853Z,0.00
2019-03-24T04:43:10.787Z,0.00
2019-03-24T04:44:10.775Z,0.00
2019-03-24T04:45:10.765Z,0.00
2019-03-24T04:46:10.761Z,0.00
2019-03-24T04:47:16.526Z,0.00
2019-03-24T04:48:11.730Z,0.00
2019-03-24T04:49:10.720Z,0.00
2019-03-24T04:50:10.710Z,0.00
2019-03-24T04:51:10.701Z,0.00
2019-03-24T04:52:10.699Z,0.00
2019-03-24T04:53:10.728Z,0.00
2019-03-24T04:54:10.706Z,0.00
2019-03-24T04:55:10.651Z,0.00
2019-03-24T04:56:10.646Z,0.00
2019-03-24T04:57:10.698Z,0.00
2019-03-24T04:58:10.617Z,0.00
2019-03-24T04:59:10.606Z,0.00
2019-03-24T05:00:10.597Z,0.00
2019-03-24T05:01:10.586Z,0.00
2019-03-24T05:02:10.575Z,0.00
2019-03-24T05:03:10.805Z,0.00
2019-03-24T05:04:10.550Z,0.00
2019-03-24T05:05:10.542Z,0.00
2019-03-24T05:06:10.533Z,0.00
2019-03-24T05:07:10.518Z,0.00
2019-03-24T05:08:10.518Z,0.00
2019-03-24T05:09:10.560Z,5.62
2019-03-24T05:10:10.483Z,5.62
2019-03-24T05:11:10.471Z,5.62
2019-03-24T05:12:10.460Z,5.62
2019-03-24T05:13:10.481Z,5.62
2019-03-24T05:14:10.438Z,5.62
2019-03-24T05:15:10.492Z,5.62
2019-03-24T05:16:10.414Z,5.62
2019-03-24T05:17:10.404Z,5.62
2019-03-24T05:18:10.393Z,5.62
2019-03-24T05:19:10.381Z,11.25
2019-03-24T05:20:10.369Z,11.25
2019-03-24T05:21:10.427Z,11.25
2019-03-24T05:22:10.349Z,11.25
2019-03-24T05:23:10.335Z,16.88
2019-03-24T05:24:10.324Z,16.88
2019-03-24T05:25:10.317Z,16.88
2019-03-24T05:26:10.300Z,16.88
2019-03-24T05:27:10.360Z,22.50
2019-03-24T05:28:10.319Z,22.50
2019-03-24T05:29:10.269Z,22.50
2019-03-24T05:30:11.222Z,22.50
2019-03-24T05:31:10.246Z,22.50
2019-03-24T05:32:10.234Z,22.50
2019-03-24T05:33:10.296Z,22.50
2019-03-24T05:34:10.214Z,28.12
2019-03-24T05:35:10.205Z,28.12
2019-03-24T05:36:10.251Z,28.12
2019-03-24T05:37:10.178Z,33.75
2019-03-24T05:38:10.167Z,33.75
2019-03-24T05:39:10.223Z,39.38
2019-03-24T05:40:10.146Z,39.38
2019-03-24T05:41:11.914Z,39.38
2019-03-24T05:42:10.125Z,39.38
2019-03-24T05:43:10.111Z,45.00
2019-03-24T05:44:10.099Z,50.62
2019-03-24T05:45:10.308Z,50.62
2019-03-24T05:46:10.077Z,50.62
2019-03-24T05:47:10.072Z,50.62
2019-03-24T05:48:10.056Z,56.25
2019-03-24T05:49:10.046Z,56.25
2019-03-24T05:50:10.040Z,56.25
2019-03-24T05:51:10.087Z,61.88
2019-03-24T05:52:10.010Z,61.88
2019-03-24T05:53:09.999Z,73.12
2019-03-24T05:54:09.993Z,78.75
2019-03-24T05:55:09.986Z,84.38
2019-03-24T05:56:09.967Z,90.00
2019-03-24T05:57:10.027Z,90.00
2019-03-24T05:58:10.010Z,90.00
2019-03-24T05:59:09.933Z,95.62
2019-03-24T06:00:09.922Z,90.00
2019-03-24T06:01:09.909Z,90.00
2019-03-24T06:02:09.902Z,90.00
2019-03-24T06:03:09.894Z,95.62
2019-03-24T06:04:09.943Z,95.62
2019-03-24T06:05:09.867Z,101.25
2019-03-24T06:06:09.871Z,101.25
2019-03-24T06:07:09.847Z,106.88
2019-03-24T06:08:09.832Z,112.50
2019-03-24T06:09:09.822Z,112.50
2019-03-24T06:10:09.875Z,118.12
2019-03-24T06:11:09.798Z,123.75
2019-03-24T06:12:09.795Z,123.75
2019-03-24T06:13:09.776Z,129.38
2019-03-24T06:14:09.765Z,140.62
2019-03-24T06:15:09.756Z,146.25
2019-03-24T06:16:09.812Z,151.88
2019-03-24T06:17:09.744Z,157.50
2019-03-24T06:18:09.720Z,157.50
2019-03-24T06:19:09.713Z,157.50
2019-03-24T06:20:09.700Z,151.88
2019-03-24T06:21:09.687Z,157.50
2019-03-24T06:22:09.743Z,168.75
2019-03-24T06:23:09.664Z,174.38
2019-03-24T06:24:09.654Z,185.62
2019-03-24T06:25:09.656Z,196.88
2019-03-24T06:26:09.636Z,196.88
2019-03-24T06:27:09.619Z,202.50
2019-03-24T06:28:09.857Z,213.75
2019-03-24T06:29:09.597Z,225.00
2019-03-24T06:30:09.596Z,230.62
2019-03-24T06:31:09.580Z,236.25
2019-03-24T06:32:09.568Z,247.50
2019-03-24T06:33:09.597Z,264.38
2019-03-24T06:34:09.603Z,270.00
2019-03-24T06:35:09.531Z,275.62
2019-03-24T06:36:09.734Z,281.25
2019-03-24T06:37:09.508Z,286.88
2019-03-24T06:38:09.516Z,281.25
2019-03-24T06:39:09.486Z,281.25
2019-03-24T06:40:09.474Z,270.00
2019-03-24T06:41:09.464Z,264.38
2019-03-24T06:42:09.549Z,258.75
2019-03-24T06:43:09.445Z,258.75
2019-03-24T06:44:09.431Z,258.75
2019-03-24T06:45:09.440Z,258.75
2019-03-24T06:46:09.407Z,264.38
2019-03-24T06:47:09.396Z,264.38
2019-03-24T06:48:09.452Z,264.38
2019-03-24T06:49:09.375Z,264.38
2019-03-24T06:50:09.362Z,264.38
2019-03-24T06:51:09.374Z,270.00
2019-03-24T06:52:09.341Z,275.62
2019-03-24T06:53:09.331Z,275.62
2019-03-24T06:54:09.372Z,281.25
2019-03-24T06:55:09.310Z,286.88
2019-03-24T06:56:09.301Z,298.12
2019-03-24T06:57:09.290Z,298.12
2019-03-24T06:58:09.273Z,303.75
2019-03-24T06:59:09.341Z,303.75
2019-03-24T07:00:09.257Z,309.38
2019-03-24T07:01:09.242Z,315.00
2019-03-24T07:02:09.230Z,320.62
2019-03-24T07:03:09.221Z,326.25
2019-03-24T07:04:09.207Z,337.50
2019-03-24T07:05:09.247Z,337.50
2019-03-24T07:06:09.183Z,337.50
2019-03-24T07:07:09.182Z,337.50
2019-03-24T07:08:09.173Z,337.50
2019-03-24T07:09:09.366Z,343.12
2019-03-24T07:10:09.143Z,354.38
2019-03-24T07:11:13.518Z,365.62
2019-03-24T07:12:09.118Z,376.88
2019-03-24T07:13:09.115Z,382.50
2019-03-24T07:14:09.092Z,393.75
2019-03-24T07:15:09.170Z,393.75
2019-03-24T07:16:09.070Z,393.75
2019-03-24T07:17:09.057Z,399.38
2019-03-24T07:18:09.073Z,410.62
2019-03-24T07:19:09.101Z,416.25
2019-03-24T07:20:09.023Z,416.25
2019-03-24T07:21:09.013Z,421.88
2019-03-24T07:22:09.000Z,410.62
2019-03-24T07:23:08.992Z,410.62
2019-03-24T07:24:08.978Z,405.00
2019-03-24T07:25:09.022Z,399.38
2019-03-24T07:26:09.008Z,399.38
2019-03-24T07:27:08.945Z,399.38
2019-03-24T07:28:08.935Z,393.75
2019-03-24T07:29:08.926Z,388.12
2019-03-24T07:30:08.911Z,388.12
2019-03-24T07:31:08.977Z,393.75
2019-03-24T07:32:08.889Z,399.38
2019-03-24T07:33:08.884Z,399.38
2019-03-24T07:34:08.868Z,393.75
2019-03-24T07:35:08.857Z,393.75
2019-03-24T07:36:08.845Z,399.38
2019-03-24T07:37:08.886Z,410.62
2019-03-24T07:38:08.826Z,421.88
2019-03-24T07:39:08.879Z,421.88
2019-03-24T07:40:08.802Z,416.25
2019-03-24T07:41:08.790Z,410.62
2019-03-24T07:42:08.780Z,405.00
2019-03-24T07:43:08.766Z,393.75
2019-03-24T07:44:08.755Z,388.12
2019-03-24T07:45:08.820Z,388.12
2019-03-24T07:46:08.734Z,388.12
2019-03-24T07:47:08.723Z,393.75
2019-03-24T07:48:18.445Z,405.00
2019-03-24T07:49:09.698Z,416.25
2019-03-24T07:50:08.687Z,427.50
2019-03-24T07:51:08.749Z,427.50
2019-03-24T07:52:08.666Z,421.88
2019-03-24T07:53:11.018Z,410.62
2019-03-24T07:54:08.646Z,405.00
2019-03-24T07:55:08.632Z,405.00
2019-03-24T07:56:08.620Z,410.62
2019-03-24T07:57:08.851Z,416.25
2019-03-24T07:58:08.601Z,427.50
2019-03-24T07:59:08.590Z,433.12
2019-03-24T08:00:08.577Z,433.12
2019-03-24T08:01:08.566Z,438.75
2019-03-24T08:02:08.553Z,433.12
2019-03-24T08:03:08.609Z,438.75
2019-03-24T08:04:08.531Z,455.62
2019-03-24T08:05:08.525Z,472.50
2019-03-24T08:06:08.546Z,478.12
2019-03-24T08:07:08.497Z,472.50
2019-03-24T08:08:08.486Z,461.25
2019-03-24T08:09:08.691Z,444.38
2019-03-24T08:10:08.467Z,438.75
2019-03-24T08:11:08.455Z,450.00
2019-03-24T08:12:08.472Z,461.25
2019-03-24T08:13:08.430Z,483.75
2019-03-24T08:14:08.420Z,511.88
2019-03-24T08:15:08.477Z,517.50
2019-03-24T08:16:08.396Z,528.75
2019-03-24T08:17:08.385Z,528.75
2019-03-24T08:18:08.376Z,534.38
2019-03-24T08:19:08.362Z,540.00
2019-03-24T08:20:08.353Z,551.25
2019-03-24T08:21:08.411Z,556.88
2019-03-24T08:22:08.335Z,556.88
2019-03-24T08:23:08.323Z,556.88
2019-03-24T08:24:08.308Z,562.50
2019-03-24T08:25:08.313Z,568.12
2019-03-24T08:26:08.289Z,573.75
2019-03-24T08:27:08.329Z,579.38
2019-03-24T08:28:08.261Z,590.62
2019-03-24T08:29:08.255Z,585.00
2019-03-24T08:30:08.293Z,573.75
2019-03-24T08:31:08.229Z,562.50
2019-03-24T08:32:08.217Z,551.25
2019-03-24T08:33:08.210Z,551.25
2019-03-24T08:34:08.193Z,562.50
2019-03-24T08:35:08.399Z,568.12
2019-03-24T08:36:08.172Z,562.50
2019-03-24T08:37:08.165Z,562.50
2019-03-24T08:38:08.150Z,568.12
2019-03-24T08:39:08.142Z,562.50
2019-03-24T08:40:08.127Z,562.50
2019-03-24T08:41:08.238Z,573.75
2019-03-24T08:42:08.138Z,573.75
2019-03-24T08:43:08.092Z,585.00
2019-03-24T08:44:08.080Z,596.25
2019-03-24T08:45:08.071Z,601.88
2019-03-24T08:46:08.059Z,590.62
2019-03-24T08:47:08.121Z,573.75
2019-03-24T08:48:08.036Z,573.75
2019-03-24T08:49:08.028Z,573.75
2019-03-24T08:50:08.013Z,573.75
2019-03-24T08:51:08.001Z,573.75
2019-03-24T08:52:07.990Z,579.38
2019-03-24T08:53:08.047Z,568.12
2019-03-24T08:54:07.970Z,568.12
2019-03-24T08:55:07.959Z,573.75
2019-03-24T08:56:07.952Z,573.75
2019-03-24T08:57:07.935Z,579.38
2019-03-24T08:58:07.927Z,590.62
2019-03-24T08:59:07.985Z,607.50
2019-03-24T09:00:07.902Z,624.38
2019-03-24T09:01:07.888Z,641.25
2019-03-24T09:02:07.878Z,658.12
2019-03-24T09:03:07.866Z,680.62
2019-03-24T09:04:07.855Z,708.75
2019-03-24T09:05:07.917Z,736.88
2019-03-24T09:06:07.831Z,748.12
2019-03-24T09:07:07.829Z,748.12
2019-03-24T09:08:07.809Z,748.12
2019-03-24T09:09:07.804Z,748.12
2019-03-24T09:10:07.790Z,759.38
2019-03-24T09:11:07.844Z,765.00
2019-03-24T09:12:07.766Z,736.88
2019-03-24T09:13:07.753Z,708.75
2019-03-24T09:14:07.741Z,686.25
2019-03-24T09:15:07.729Z,691.88
2019-03-24T09:16:07.720Z,708.75
2019-03-24T09:17:07.785Z,725.62
2019-03-24T09:18:07.696Z,736.88
2019-03-24T09:19:07.686Z,736.88
2019-03-24T09:20:07.672Z,708.75
2019-03-24T09:21:07.661Z,686.25
2019-03-24T09:22:07.652Z,675.00
2019-03-24T09:23:07.707Z,686.25
2019-03-24T09:24:07.628Z,708.75
2019-03-24T09:25:07.622Z,720.00
2019-03-24T09:26:07.607Z,725.62
2019-03-24T09:27:07.596Z,714.38
2019-03-24T09:28:09.252Z,708.75
2019-03-24T09:29:07.626Z,714.38
2019-03-24T09:30:07.562Z,714.38
2019-03-24T09:31:07.619Z,708.75
2019-03-24T09:32:07.540Z,703.12
2019-03-24T09:33:07.526Z,708.75
2019-03-24T09:34:07.515Z,720.00
2019-03-24T09:35:07.507Z,748.12
2019-03-24T09:36:07.495Z,776.25
2019-03-24T09:37:07.725Z,781.88
2019-03-24T09:38:07.474Z,787.50
2019-03-24T09:39:07.459Z,804.38
2019-03-24T09:40:07.451Z,804.38
2019-03-24T09:41:07.442Z,804.38
2019-03-24T09:42:07.425Z,815.62
2019-03-24T09:43:07.658Z,843.75
2019-03-24T09:44:07.445Z,860.62
2019-03-24T09:45:07.402Z,866.25
2019-03-24T09:46:07.381Z,860.62
2019-03-24T09:47:07.408Z,855.00
2019-03-24T09:48:07.357Z,855.00
2019-03-24T09:49:07.401Z,855.00
2019-03-24T09:50:07.337Z,860.62
2019-03-24T09:51:07.327Z,860.62
2019-03-24T09:52:07.328Z,855.00
2019-03-24T09:53:07.302Z,826.88
2019-03-24T09:54:07.360Z,770.62
2019-03-24T09:55:07.287Z,736.88
2019-03-24T09:56:07.270Z,748.12
2019-03-24T09:57:07.258Z,781.88
2019-03-24T09:58:07.248Z,798.75
2019-03-24T09:59:07.236Z,832.50
2019-03-24T10:00:07.293Z,871.88
2019-03-24T10:01:07.211Z,922.50
2019-03-24T10:02:07.200Z,956.25
2019-03-24T10:03:07.192Z,945.00
2019-03-24T10:04:07.179Z,928.12
2019-03-24T10:05:07.168Z,939.38
2019-03-24T10:06:07.207Z,945.00
2019-03-24T10:07:07.143Z,950.62
2019-03-24T10:08:07.135Z,995.62
2019-03-24T10:09:07.121Z,995.62
2019-03-24T10:10:07.110Z,1006.88
2019-03-24T10:11:07.342Z,1057.50
2019-03-24T10:12:07.086Z,1136.25
2019-03-24T10:13:07.077Z,1181.25
2019-03-24T10:14:07.066Z,1198.12
2019-03-24T10:15:07.054Z,1198.12
2019-03-24T10:16:07.041Z,1220.62
2019-03-24T10:17:07.084Z,1237.50
2019-03-24T10:18:07.020Z,1271.25
2019-03-24T10:19:13.981Z,1310.62
2019-03-24T10:20:07.994Z,1327.50
2019-03-24T10:21:06.984Z,1383.75
2019-03-24T10:22:07.041Z,1440.00
2019-03-24T10:23:06.967Z,1530.00
2019-03-24T10:24:07.953Z,1636.88
2019-03-24T10:25:06.940Z,1687.50
2019-03-24T10:26:06.928Z,1698.75
2019-03-24T10:27:06.926Z,1659.38
2019-03-24T10:28:07.149Z,1591.88
2019-03-24T10:29:06.895Z,1558.12
2019-03-24T10:30:06.884Z,1524.38
2019-03-24T10:31:06.873Z,1591.88
2019-03-24T10:32:06.862Z,1625.62
2019-03-24T10:33:06.852Z,1569.38
2019-03-24T10:34:06.908Z,1501.88
2019-03-24T10:35:06.830Z,1496.25
2019-03-24T10:36:06.816Z,1535.62
2019-03-24T10:37:06.804Z,1546.88
2019-03-24T10:38:06.794Z,1535.62
2019-03-24T10:39:06.784Z,1440.00
2019-03-24T10:40:06.837Z,1383.75
2019-03-24T10:41:06.760Z,1411.88
2019-03-24T10:42:06.754Z,1428.75
2019-03-24T10:43:06.737Z,1400.62
2019-03-24T10:44:06.726Z,1366.88
2019-03-24T10:45:06.720Z,1350.00
2019-03-24T10:46:06.774Z,1378.12
2019-03-24T10:47:06.693Z,1406.25
2019-03-24T10:48:06.683Z,1451.25
2019-03-24T10:49:06.671Z,1479.38
2019-03-24T10:50:06.661Z,1496.25
2019-03-24T10:51:06.656Z,1479.38
2019-03-24T10:52:06.705Z,1440.00
2019-03-24T10:53:06.631Z,1400.62
2019-03-24T10:54:06.617Z,1361.25
2019-03-24T10:55:06.605Z,1293.75
2019-03-24T10:56:06.596Z,1231.88
2019-03-24T10:57:06.586Z,1198.12
2019-03-24T10:58:06.641Z,1181.25
2019-03-24T10:59:06.562Z,1181.25
2019-03-24T11:00:06.551Z,1198.12
2019-03-24T11:01:06.541Z,1220.62
2019-03-24T11:02:06.532Z,1243.12
2019-03-24T11:03:06.519Z,1248.75
2019-03-24T11:04:06.578Z,1237.50
2019-03-24T11:05:06.497Z,1220.62
2019-03-24T11:06:06.484Z,1215.00
2019-03-24T11:07:06.474Z,1237.50
2019-03-24T11:08:06.464Z,1288.12
2019-03-24T11:09:06.452Z,1338.75
2019-03-24T11:10:06.507Z,1350.00
2019-03-24T11:11:06.429Z,1327.50
2019-03-24T11:12:06.422Z,1327.50
2019-03-24T11:13:06.416Z,1321.88
2019-03-24T11:14:06.397Z,1299.38
2019-03-24T11:15:06.387Z,1254.38
2019-03-24T11:16:06.435Z,1186.88
2019-03-24T11:17:06.364Z,1102.50
2019-03-24T11:18:06.353Z,1029.38
2019-03-24T11:19:06.341Z,984.38
2019-03-24T11:20:06.398Z,945.00
2019-03-24T11:21:08.763Z,916.88
2019-03-24T11:22:06.309Z,894.38
2019-03-24T11:23:06.298Z,877.50
2019-03-24T11:24:06.293Z,871.88
2019-03-24T11:25:06.277Z,866.25
2019-03-24T11:26:06.526Z,871.88
2019-03-24T11:27:06.253Z,855.00
2019-03-24T11:28:06.244Z,826.88
2019-03-24T11:29:06.230Z,787.50
2019-03-24T11:30:06.220Z,759.38
2019-03-24T11:31:06.208Z,753.75
2019-03-24T11:32:06.254Z,759.38
2019-03-24T11:33:06.189Z,770.62
2019-03-24T11:34:06.175Z,765.00
2019-03-24T11:35:06.163Z,748.12
2019-03-24T11:36:06.235Z,731.25
2019-03-24T11:37:06.139Z,703.12
2019-03-24T11:38:06.129Z,675.00
2019-03-24T11:39:06.116Z,658.12
2019-03-24T11:40:06.107Z,658.12
2019-03-24T11:41:06.095Z,663.75
2019-03-24T11:42:06.327Z,675.00
2019-03-24T11:43:06.076Z,675.00
2019-03-24T11:44:06.066Z,663.75
2019-03-24T11:45:06.053Z,641.25
2019-03-24T11:46:06.039Z,607.50
2019-03-24T11:47:06.027Z,585.00
2019-03-24T11:48:06.230Z,568.12
2019-03-24T11:49:06.005Z,551.25
2019-03-24T11:50:05.997Z,540.00
2019-03-24T11:51:05.982Z,528.75
2019-03-24T11:52:05.971Z,523.12
2019-03-24T11:53:05.959Z,534.38
2019-03-24T11:54:06.024Z,551.25
2019-03-24T11:55:05.937Z,568.12
2019-03-24T11:56:05.925Z,585.00
2019-03-24T11:57:05.924Z,596.25
2019-03-24T11:58:06.383Z,601.88
2019-03-24T11:59:05.893Z,618.75
2019-03-24T12:00:05.964Z,635.62
2019-03-24T12:01:05.871Z,646.88
2019-03-24T12:02:05.860Z,652.50
2019-03-24T12:03:05.847Z,641.25
2019-03-24T12:04:05.836Z,641.25
2019-03-24T12:05:05.825Z,646.88
2019-03-24T12:06:13.893Z,680.62
2019-03-24T12:07:07.646Z,720.00
2019-03-24T12:08:05.792Z,759.38
2019-03-24T12:09:05.798Z,765.00
2019-03-24T12:10:05.767Z,765.00
2019-03-24T12:11:05.756Z,742.50
2019-03-24T12:12:05.845Z,731.25
2019-03-24T12:13:05.734Z,731.25
2019-03-24T12:14:05.723Z,742.50
2019-03-24T12:15:05.713Z,759.38
2019-03-24T12:16:05.700Z,798.75
2019-03-24T12:17:05.791Z,826.88
2019-03-24T12:18:05.755Z,860.62
2019-03-24T12:19:05.667Z,888.75
2019-03-24T12:20:05.658Z,911.25
2019-03-24T12:21:05.647Z,945.00
2019-03-24T12:22:05.635Z,961.88
2019-03-24T12:23:05.623Z,956.25
2019-03-24T12:24:05.684Z,939.38
2019-03-24T12:25:05.610Z,939.38
2019-03-24T12:26:05.588Z,950.62
2019-03-24T12:27:05.579Z,956.25
2019-03-24T12:28:05.572Z,939.38
2019-03-24T12:29:05.554Z,916.88
2019-03-24T12:30:05.999Z,900.00
2019-03-24T12:31:05.534Z,894.38
2019-03-24T12:32:05.524Z,900.00
2019-03-24T12:33:05.511Z,911.25
2019-03-24T12:34:05.502Z,928.12
2019-03-24T12:35:05.490Z,939.38
2019-03-24T12:36:05.529Z,933.75
2019-03-24T12:37:05.466Z,939.38
2019-03-24T12:38:05.455Z,928.12
2019-03-24T12:39:05.534Z,888.75
2019-03-24T12:40:05.451Z,832.50
2019-03-24T12:41:05.422Z,765.00
2019-03-24T12:42:05.409Z,714.38
2019-03-24T12:43:05.398Z,669.38
2019-03-24T12:44:05.388Z,635.62
2019-03-24T12:45:05.723Z,601.88
2019-03-24T12:46:05.367Z,556.88
2019-03-24T12:47:05.359Z,517.50